CST,Max TemperatureF,Mean TemperatureF,Min TemperatureF,Max Dew PointF,MeanDew PointF,Min DewpointF,Max Humidity, Mean Humidity, Min Humidity, Max Sea Level PressureIn, Mean Sea Level PressureIn, Min Sea Level PressureIn, Max VisibilityMiles, Mean VisibilityMiles, Min VisibilityMiles, Max Wind SpeedMPH, Mean Wind SpeedMPH, Max Gust SpeedMPH,PrecipitationIn, CloudCover, Events, WindDirDegrees
2012-11-1,70,54,37,45,41,37,96,64,31,30.08,30.02,29.99,10,9,6,12,2,17,0.00,0,,340
2012-11-2,81,61,41,56,49,39,96,66,36,30.05,30.01,29.96,10,9,7,9,2,13,0.00,0,,262
2012-11-3,84,67,50,62,55,49,96,70,43,30.12,30.05,30.00,10,8,2,14,2,18,0.00,0,,234
2012-11-4,70,57,44,59,52,42,97,72,47,30.12,30.08,30.03,10,9,6,14,4,20,0.05,2,Rain,325
2012-11-5,63,51,38,51,44,36,100,71,42,30.12,30.04,29.96,10,8,2,10,3,13,0.35,4,Rain,328
2012-11-6,60,52,44,48,46,43,100,81,62,30.06,30.00,29.96,10,7,0,13,5,17,0.00,7,Fog,311
2012-11-7,61,50,39,44,40,34,100,72,43,30.16,30.04,29.96,10,8,1,21,5,26,0.00,3,,326
2012-11-8,64,50,35,43,38,34,100,70,39,30.28,30.22,30.17,10,8,4,9,2,13,0.00,0,,352
2012-11-9,68,52,35,46,40,33,100,69,37,30.33,30.25,30.20,10,7,4,6,1,8,0.00,1,,193
2012-11-10,73,56,39,51,43,38,100,67,33,30.34,30.27,30.22,10,9,6,13,4,16,0.00,0,,157
2012-11-11,75,60,45,54,49,43,93,70,46,30.30,30.21,30.14,10,10,10,18,7,25,0.00,1,,148
2012-11-12,67,53,39,59,51,33,100,79,58,30.41,30.25,30.13,10,7,1,17,7,23,0.44,6,Rain-Thunderstorm,315
2012-11-13,58,46,34,33,29,25,82,56,30,30.47,30.39,30.32,10,10,10,22,9,28,0.00,0,,7
2012-11-14,63,48,33,44,38,31,96,72,48,30.37,30.30,30.25,10,10,7,10,2,15,0.00,1,,18
2012-11-15,65,50,35,43,39,34,100,70,40,30.33,30.28,30.23,10,9,5,12,2,17,0.00,0,,29
2012-11-16,67,51,34,40,36,33,100,66,31,30.35,30.30,30.26,10,10,8,12,2,14,0.00,0,,22
2012-11-17,67,51,35,39,35,31,92,60,28,30.43,30.37,30.32,10,10,8,14,3,22,0.00,0,,60
2012-11-18,66,50,34,43,38,33,92,66,39,30.42,30.35,30.29,10,10,7,12,2,15,0.00,0,,39
2012-11-19,67,52,37,47,43,36,100,73,45,30.34,30.27,30.20,10,9,7,6,1,8,0.00,0,,36
2012-11-20,69,55,41,48,46,41,96,70,44,30.24,30.17,30.11,10,9,5,8,1,10,0.00,2,,224
2012-11-21,75,58,41,51,46,40,96,67,38,30.20,30.17,30.13,10,8,2,12,2,16,0.00,0,,353
2012-11-22,73,57,40,50,45,39,100,69,38,30.26,30.20,30.17,10,7,2,8,1,10,0.00,0,,238
2012-11-23,69,55,40,54,46,34,100,78,56,30.23,30.20,30.15,10,6,2,13,4,18,0.00,2,,321
2012-11-24,54,42,30,34,28,22,89,59,28,30.33,30.25,30.21,10,10,10,15,4,18,0.00,0,,339
2012-11-25,60,44,27,32,28,24,92,59,25,30.24,30.17,30.11,10,10,9,10,2,13,0.00,0,,182
2012-11-26,68,50,32,55,44,29,89,72,55,30.21,30.14,30.10,10,10,9,10,3,14,T,5,Rain,177
2012-11-27,61,53,45,58,51,38,100,86,71,30.33,30.17,30.04,10,7,1,17,9,24,0.34,8,Rain-Thunderstorm,351
2012-11-28,59,46,33,37,33,27,92,60,28,30.47,30.40,30.33,10,8,4,12,4,15,0.00,1,,13
2012-11-29,64,47,30,41,36,28,96,68,39,30.44,30.36,30.30,10,9,4,9,2,13,0.00,0,,90
2012-11-30,68,51,33,48,39,32,100,73,45,30.36,30.31,30.24,10,6,1,12,1,16,0.00,2,,220